< < Back
Terminal Aerodrome Forecast


Current Version              Previous Versions:   1  2  3  4  5  6  7  8  9  

Terminal Aerodrome Forecast

820
FTUS42 KJAX 011553 AAA
TAFSSI
TAF AMD
KSSI 011553Z 0116/0212 25008KT P6SM VCTS SCT025 BKN050CB
      TEMPO 0118/0120 VRB20G30KT 2SM TSRA BKN020CB
     FM012200 20006KT P6SM VCSH SCT040 BKN250
     FM020000 20005KT P6SM SCT100 BKN250=



Latest METAR

413
SAUS70 KWBC 020900 RRR
MTRSSI
METAR KSSI 020853Z AUTO 20006KT 10SM OVC100 26/24 A3002 RMK AO2 SLP166
T02560244 55006


USA.gov is the U.S. government's official web portal to all federal, state and local government web resources and services.